Minot International Airport Minot US
ICAO: KMOT
IATA: MOT
Category: Medium
Scheduled Services: Yes

Elevation: 1716 ft
TransAlt. 18000 ft.

Airport Communications:
APP:119.6
CTAF:118.2
DEP:119.6
GND:121.9
GRAND FORKS RDO:122.2
MAGIC CITY TWR:118.2
UNICOM:122.95

KMOT Zoom In..

Runways:

(A) RW 08 length 6351 ft width 100 ft
---- / hdg 80

(B) RW 13 length 7700 ft width 150 ft
---- / hdg 128

(C) RW 26 length 6351 ft width 100 ft
---- / hdg 260

(D) RW 31 length 7700 ft width 150 ft
ILS 111.90 / hdg 308

Location; KMOT
Day. 20 / Time. 01.54 Zulu
* Altimeter: 29.86
* Temperature: 21° c. 69.8°f.
* Wind from: 320° Speed 10 kn.
Dewpoint: 18° c.
Visibility: 10 Statute Miles.
Clouds: Broken 1000 ft.
Clouds: Broken 12000 ft.

KMOT 200154Z 32010KT 10SM BKN100 BKN120 21/18 A2986 RMK AO2 PK WND 31026/0055 LTG DSNT E-S RAB07E53 TSB07E35 SLP105 P0004 T02060178


Wind From 320°
Speed 10 kn.

 
 
jpsmedia.com for Web Design worldairports.se 2018   terms of use